sensor_id;sensor_type;location;lat;lon;timestamp;temperature;humidity
23395;DHT22;11870;53.084;18.206;2023-02-20T00:01:03;1.90;99.90
23395;DHT22;11870;53.084;18.206;2023-02-20T00:03:29;3.30;99.90
23395;DHT22;11870;53.084;18.206;2023-02-20T00:05:56;1.90;99.90
23395;DHT22;11870;53.084;18.206;2023-02-20T00:08:21;1.90;99.90
23395;DHT22;11870;53.084;18.206;2023-02-20T00:10:48;1.80;99.90
23395;DHT22;11870;53.084;18.206;2023-02-20T00:13:14;1.80;99.90
23395;DHT22;11870;53.084;18.206;2023-02-20T00:15:40;1.70;99.90
23395;DHT22;11870;53.084;18.206;2023-02-20T00:18:06;1.70;99.90
23395;DHT22;11870;53.084;18.206;2023-02-20T00:20:32;1.70;99.90
23395;DHT22;11870;53.084;18.206;2023-02-20T00:22:58;1.70;99.90
23395;DHT22;11870;53.084;18.206;2023-02-20T00:25:24;1.60;99.90
23395;DHT22;11870;53.084;18.206;2023-02-20T00:27:50;1.60;99.90
23395;DHT22;11870;53.084;18.206;2023-02-20T00:30:19;1.70;99.90
23395;DHT22;11870;53.084;18.206;2023-02-20T00:32:47;1.70;99.90
23395;DHT22;11870;53.084;18.206;2023-02-20T00:35:14;1.80;99.90
23395;DHT22;11870;53.084;18.206;2023-02-20T00:37:40;1.80;99.90
23395;DHT22;11870;53.084;18.206;2023-02-20T00:40:07;1.90;99.90
23395;DHT22;11870;53.084;18.206;2023-02-20T00:42:33;1.90;99.90
23395;DHT22;11870;53.084;18.206;2023-02-20T00:44:59;1.90;99.90
23395;DHT22;11870;53.084;18.206;2023-02-20T00:47:25;1.90;99.90
23395;DHT22;11870;53.084;18.206;2023-02-20T00:49:51;1.90;99.90
23395;DHT22;11870;53.084;18.206;2023-02-20T00:52:17;1.90;99.90
23395;DHT22;11870;53.084;18.206;2023-02-20T00:54:43;1.90;99.90
23395;DHT22;11870;53.084;18.206;2023-02-20T00:57:09;2.00;99.90
23395;DHT22;11870;53.084;18.206;2023-02-20T00:59:35;2.00;99.90
23395;DHT22;11870;53.084;18.206;2023-02-20T01:02:01;2.00;99.90
23395;DHT22;11870;53.084;18.206;2023-02-20T01:04:27;2.00;99.90
23395;DHT22;11870;53.084;18.206;2023-02-20T01:06:52;2.10;99.90
23395;DHT22;11870;53.084;18.206;2023-02-20T01:09:18;2.10;99.90
23395;DHT22;11870;53.084;18.206;2023-02-20T01:11:44;2.20;99.90
23395;DHT22;11870;53.084;18.206;2023-02-20T01:14:12;2.20;99.90
23395;DHT22;11870;53.084;18.206;2023-02-20T01:16:49;2.20;99.90
23395;DHT22;11870;53.084;18.206;2023-02-20T01:19:17;2.30;99.90
23395;DHT22;11870;53.084;18.206;2023-02-20T01:21:43;2.30;99.90
23395;DHT22;11870;53.084;18.206;2023-02-20T01:24:10;2.20;99.90
23395;DHT22;11870;53.084;18.206;2023-02-20T01:26:35;2.30;99.90
23395;DHT22;11870;53.084;18.206;2023-02-20T01:29:03;2.20;99.90
23395;DHT22;11870;53.084;18.206;2023-02-20T01:31:29;2.20;99.90
23395;DHT22;11870;53.084;18.206;2023-02-20T01:33:55;2.20;99.90
23395;DHT22;11870;53.084;18.206;2023-02-20T01:36:21;2.10;99.90
23395;DHT22;11870;53.084;18.206;2023-02-20T01:38:47;2.10;99.90
23395;DHT22;11870;53.084;18.206;2023-02-20T01:41:13;2.10;99.90
23395;DHT22;11870;53.084;18.206;2023-02-20T01:43:40;2.00;99.90
23395;DHT22;11870;53.084;18.206;2023-02-20T01:49:16;1.80;99.90
23395;DHT22;11870;53.084;18.206;2023-02-20T01:51:49;1.80;99.90
23395;DHT22;11870;53.084;18.206;2023-02-20T01:54:17;1.80;99.90
23395;DHT22;11870;53.084;18.206;2023-02-20T01:56:46;1.70;99.90
23395;DHT22;11870;53.084;18.206;2023-02-20T01:59:13;1.60;99.90
23395;DHT22;11870;53.084;18.206;2023-02-20T02:01:40;1.50;99.90
23395;DHT22;11870;53.084;18.206;2023-02-20T02:04:08;1.40;99.90
23395;DHT22;11870;53.084;18.206;2023-02-20T02:06:39;1.30;99.90
23395;DHT22;11870;53.084;18.206;2023-02-20T02:09:20;1.20;99.90
23395;DHT22;11870;53.084;18.206;2023-02-20T02:11:48;1.20;99.90
23395;DHT22;11870;53.084;18.206;2023-02-20T02:14:15;1.10;99.90
23395;DHT22;11870;53.084;18.206;2023-02-20T02:25:50;0.90;99.90
23395;DHT22;11870;53.084;18.206;2023-02-20T02:42:08;0.90;99.90
23395;DHT22;11870;53.084;18.206;2023-02-20T02:47:15;1.00;99.90
23395;DHT22;11870;53.084;18.206;2023-02-20T02:52:15;1.00;99.90
23395;DHT22;11870;53.084;18.206;2023-02-20T02:55:02;1.00;99.90
23395;DHT22;11870;53.084;18.206;2023-02-20T02:57:28;1.60;99.90
23395;DHT22;11870;53.084;18.206;2023-02-20T02:59:59;1.10;99.90
23395;DHT22;11870;53.084;18.206;2023-02-20T03:02:30;1.20;99.90
23395;DHT22;11870;53.084;18.206;2023-02-20T03:04:58;1.20;99.90
23395;DHT22;11870;53.084;18.206;2023-02-20T03:07:27;1.20;99.90
23395;DHT22;11870;53.084;18.206;2023-02-20T03:09:59;1.20;99.90
23395;DHT22;11870;53.084;18.206;2023-02-20T03:12:26;1.30;99.90
23395;DHT22;11870;53.084;18.206;2023-02-20T03:14:59;1.40;99.90
23395;DHT22;11870;53.084;18.206;2023-02-20T03:20:20;1.50;99.90
23395;DHT22;11870;53.084;18.206;2023-02-20T03:22:57;1.60;99.90
23395;DHT22;11870;53.084;18.206;2023-02-20T03:25:25;1.70;99.90
23395;DHT22;11870;53.084;18.206;2023-02-20T03:28:19;1.80;99.90
23395;DHT22;11870;53.084;18.206;2023-02-20T03:33:54;1.80;99.90
23395;DHT22;11870;53.084;18.206;2023-02-20T03:36:47;1.90;99.90
23395;DHT22;11870;53.084;18.206;2023-02-20T03:39:36;1.90;99.90
23395;DHT22;11870;53.084;18.206;2023-02-20T03:42:23;1.90;99.90
23395;DHT22;11870;53.084;18.206;2023-02-20T03:45:10;1.90;99.90
23395;DHT22;11870;53.084;18.206;2023-02-20T03:47:42;2.00;99.90
23395;DHT22;11870;53.084;18.206;2023-02-20T03:50:10;2.00;99.90
23395;DHT22;11870;53.084;18.206;2023-02-20T03:52:37;2.00;99.90
23395;DHT22;11870;53.084;18.206;2023-02-20T03:55:03;2.10;99.90
23395;DHT22;11870;53.084;18.206;2023-02-20T03:57:33;2.10;99.90
23395;DHT22;11870;53.084;18.206;2023-02-20T04:00:17;2.10;99.90
23395;DHT22;11870;53.084;18.206;2023-02-20T04:02:46;2.10;99.90
23395;DHT22;11870;53.084;18.206;2023-02-20T04:05:21;2.10;99.90
23395;DHT22;11870;53.084;18.206;2023-02-20T04:07:57;2.20;99.90
23395;DHT22;11870;53.084;18.206;2023-02-20T04:10:27;2.20;99.90
23395;DHT22;11870;53.084;18.206;2023-02-20T04:12:55;2.10;99.90
23395;DHT22;11870;53.084;18.206;2023-02-20T04:15:24;2.10;99.90
23395;DHT22;11870;53.084;18.206;2023-02-20T04:17:56;2.00;99.90
23395;DHT22;11870;53.084;18.206;2023-02-20T04:20:24;2.00;99.90
23395;DHT22;11870;53.084;18.206;2023-02-20T04:22:55;2.00;99.90
23395;DHT22;11870;53.084;18.206;2023-02-20T04:25:44;2.10;99.90
23395;DHT22;11870;53.084;18.206;2023-02-20T04:28:12;2.10;99.90
23395;DHT22;11870;53.084;18.206;2023-02-20T04:30:39;2.20;99.90
23395;DHT22;11870;53.084;18.206;2023-02-20T04:33:05;2.20;99.90
23395;DHT22;11870;53.084;18.206;2023-02-20T04:35:31;2.20;99.90
23395;DHT22;11870;53.084;18.206;2023-02-20T04:37:57;2.20;99.90
23395;DHT22;11870;53.084;18.206;2023-02-20T04:40:23;2.30;99.90
23395;DHT22;11870;53.084;18.206;2023-02-20T04:42:49;2.30;99.90
23395;DHT22;11870;53.084;18.206;2023-02-20T04:45:15;2.40;99.90
23395;DHT22;11870;53.084;18.206;2023-02-20T04:47:45;2.50;99.90
23395;DHT22;11870;53.084;18.206;2023-02-20T04:50:40;2.50;99.90
23395;DHT22;11870;53.084;18.206;2023-02-20T04:53:06;2.60;99.90
23395;DHT22;11870;53.084;18.206;2023-02-20T04:55:32;2.70;99.90
23395;DHT22;11870;53.084;18.206;2023-02-20T04:57:58;2.90;99.90
23395;DHT22;11870;53.084;18.206;2023-02-20T05:00:25;2.90;99.90
23395;DHT22;11870;53.084;18.206;2023-02-20T05:02:51;2.90;99.90
23395;DHT22;11870;53.084;18.206;2023-02-20T05:05:24;2.90;99.90
23395;DHT22;11870;53.084;18.206;2023-02-20T05:07:56;2.90;99.90
23395;DHT22;11870;53.084;18.206;2023-02-20T05:10:23;2.90;99.90
23395;DHT22;11870;53.084;18.206;2023-02-20T05:12:50;3.00;99.90
23395;DHT22;11870;53.084;18.206;2023-02-20T05:15:18;3.00;99.90
23395;DHT22;11870;53.084;18.206;2023-02-20T05:17:44;3.00;99.90
23395;DHT22;11870;53.084;18.206;2023-02-20T05:20:10;3.00;99.90
23395;DHT22;11870;53.084;18.206;2023-02-20T05:22:36;3.00;99.90
23395;DHT22;11870;53.084;18.206;2023-02-20T05:25:03;3.00;99.90
23395;DHT22;11870;53.084;18.206;2023-02-20T05:27:29;3.00;99.90
23395;DHT22;11870;53.084;18.206;2023-02-20T05:29:57;3.10;99.90
23395;DHT22;11870;53.084;18.206;2023-02-20T05:32:25;3.10;99.90
23395;DHT22;11870;53.084;18.206;2023-02-20T05:34:52;3.10;99.90
23395;DHT22;11870;53.084;18.206;2023-02-20T05:37:19;3.10;99.90
23395;DHT22;11870;53.084;18.206;2023-02-20T05:39:46;3.10;99.90
23395;DHT22;11870;53.084;18.206;2023-02-20T05:42:12;3.10;99.90
23395;DHT22;11870;53.084;18.206;2023-02-20T05:44:39;3.20;99.90
23395;DHT22;11870;53.084;18.206;2023-02-20T05:47:05;3.10;99.90
23395;DHT22;11870;53.084;18.206;2023-02-20T05:49:33;3.10;99.90
23395;DHT22;11870;53.084;18.206;2023-02-20T05:52:00;3.10;99.90
23395;DHT22;11870;53.084;18.206;2023-02-20T05:54:26;3.20;99.90
23395;DHT22;11870;53.084;18.206;2023-02-20T05:56:52;3.30;99.90
23395;DHT22;11870;53.084;18.206;2023-02-20T05:59:21;3.30;99.90
23395;DHT22;11870;53.084;18.206;2023-02-20T06:01:47;3.40;99.90
23395;DHT22;11870;53.084;18.206;2023-02-20T06:04:18;3.40;99.90
23395;DHT22;11870;53.084;18.206;2023-02-20T06:06:43;3.40;99.90
23395;DHT22;11870;53.084;18.206;2023-02-20T06:09:11;3.40;99.90
23395;DHT22;11870;53.084;18.206;2023-02-20T06:11:38;3.40;99.90
23395;DHT22;11870;53.084;18.206;2023-02-20T06:14:05;3.40;99.90
23395;DHT22;11870;53.084;18.206;2023-02-20T06:16:33;3.40;99.90
23395;DHT22;11870;53.084;18.206;2023-02-20T06:19:00;3.40;99.90
23395;DHT22;11870;53.084;18.206;2023-02-20T06:21:27;3.40;99.90
23395;DHT22;11870;53.084;18.206;2023-02-20T06:23:54;3.40;99.90
23395;DHT22;11870;53.084;18.206;2023-02-20T06:26:21;3.30;99.90
23395;DHT22;11870;53.084;18.206;2023-02-20T06:28:47;3.40;99.90
23395;DHT22;11870;53.084;18.206;2023-02-20T06:31:25;3.40;99.90
23395;DHT22;11870;53.084;18.206;2023-02-20T06:33:51;3.40;99.90
23395;DHT22;11870;53.084;18.206;2023-02-20T06:36:23;3.40;99.90
23395;DHT22;11870;53.084;18.206;2023-02-20T06:38:50;3.40;99.90
23395;DHT22;11870;53.084;18.206;2023-02-20T06:41:16;3.40;99.90
23395;DHT22;11870;53.084;18.206;2023-02-20T06:43:42;3.40;99.90
23395;DHT22;11870;53.084;18.206;2023-02-20T06:46:08;3.50;99.90
23395;DHT22;11870;53.084;18.206;2023-02-20T06:48:34;3.40;99.90
23395;DHT22;11870;53.084;18.206;2023-02-20T06:51:00;3.40;99.90
23395;DHT22;11870;53.084;18.206;2023-02-20T06:53:26;3.50;99.90
23395;DHT22;11870;53.084;18.206;2023-02-20T06:55:51;3.40;99.90
23395;DHT22;11870;53.084;18.206;2023-02-20T06:58:17;3.50;99.90
23395;DHT22;11870;53.084;18.206;2023-02-20T07:00:43;3.40;99.90
23395;DHT22;11870;53.084;18.206;2023-02-20T07:03:09;3.40;99.90
23395;DHT22;11870;53.084;18.206;2023-02-20T07:05:35;3.40;99.90
23395;DHT22;11870;53.084;18.206;2023-02-20T07:08:01;3.40;99.90
23395;DHT22;11870;53.084;18.206;2023-02-20T07:10:27;3.30;99.90
23395;DHT22;11870;53.084;18.206;2023-02-20T07:12:53;3.30;99.90
23395;DHT22;11870;53.084;18.206;2023-02-20T07:15:19;3.30;99.90
23395;DHT22;11870;53.084;18.206;2023-02-20T07:17:45;3.40;99.90
23395;DHT22;11870;53.084;18.206;2023-02-20T07:20:11;3.30;99.90
23395;DHT22;11870;53.084;18.206;2023-02-20T07:22:37;3.40;99.90
23395;DHT22;11870;53.084;18.206;2023-02-20T07:25:03;3.40;99.90
23395;DHT22;11870;53.084;18.206;2023-02-20T07:27:29;3.40;99.90
23395;DHT22;11870;53.084;18.206;2023-02-20T07:29:55;3.40;99.90
23395;DHT22;11870;53.084;18.206;2023-02-20T07:32:21;3.50;99.90
23395;DHT22;11870;53.084;18.206;2023-02-20T07:34:48;3.50;99.90
23395;DHT22;11870;53.084;18.206;2023-02-20T07:37:15;3.60;99.90
23395;DHT22;11870;53.084;18.206;2023-02-20T07:39:41;3.50;99.90
23395;DHT22;11870;53.084;18.206;2023-02-20T07:42:07;3.60;99.90
23395;DHT22;11870;53.084;18.206;2023-02-20T07:44:33;3.60;99.90
23395;DHT22;11870;53.084;18.206;2023-02-20T07:47:01;3.70;99.90
23395;DHT22;11870;53.084;18.206;2023-02-20T07:49:27;3.70;99.90
23395;DHT22;11870;53.084;18.206;2023-02-20T07:51:53;3.80;99.90
23395;DHT22;11870;53.084;18.206;2023-02-20T07:54:19;3.70;99.90
23395;DHT22;11870;53.084;18.206;2023-02-20T07:56:45;3.70;99.90
23395;DHT22;11870;53.084;18.206;2023-02-20T07:59:10;3.80;99.90
23395;DHT22;11870;53.084;18.206;2023-02-20T08:01:36;3.80;99.90
23395;DHT22;11870;53.084;18.206;2023-02-20T08:04:02;3.90;99.90
23395;DHT22;11870;53.084;18.206;2023-02-20T08:06:28;3.90;99.90
23395;DHT22;11870;53.084;18.206;2023-02-20T08:08:54;3.90;99.90
23395;DHT22;11870;53.084;18.206;2023-02-20T08:11:22;3.90;99.90
23395;DHT22;11870;53.084;18.206;2023-02-20T08:13:48;4.00;99.90
23395;DHT22;11870;53.084;18.206;2023-02-20T08:16:14;4.00;99.90
23395;DHT22;11870;53.084;18.206;2023-02-20T08:18:40;4.00;99.90
23395;DHT22;11870;53.084;18.206;2023-02-20T08:21:06;4.10;99.90
23395;DHT22;11870;53.084;18.206;2023-02-20T08:23:32;4.10;99.90
23395;DHT22;11870;53.084;18.206;2023-02-20T08:25:58;4.10;99.90
23395;DHT22;11870;53.084;18.206;2023-02-20T08:28:24;4.60;99.90
23395;DHT22;11870;53.084;18.206;2023-02-20T08:30:50;4.20;99.90
23395;DHT22;11870;53.084;18.206;2023-02-20T08:33:16;4.20;99.90
23395;DHT22;11870;53.084;18.206;2023-02-20T08:35:43;4.30;99.90
23395;DHT22;11870;53.084;18.206;2023-02-20T08:38:27;4.30;99.90
23395;DHT22;11870;53.084;18.206;2023-02-20T08:40:54;4.30;99.90
23395;DHT22;11870;53.084;18.206;2023-02-20T08:43:20;4.30;99.90
23395;DHT22;11870;53.084;18.206;2023-02-20T08:45:46;4.30;99.90
23395;DHT22;11870;53.084;18.206;2023-02-20T08:48:12;4.40;99.90
23395;DHT22;11870;53.084;18.206;2023-02-20T08:50:38;4.40;99.90
23395;DHT22;11870;53.084;18.206;2023-02-20T08:53:04;4.40;99.90
23395;DHT22;11870;53.084;18.206;2023-02-20T08:55:30;4.50;99.90
23395;DHT22;11870;53.084;18.206;2023-02-20T08:57:56;4.50;99.90
23395;DHT22;11870;53.084;18.206;2023-02-20T09:00:22;4.60;99.90
23395;DHT22;11870;53.084;18.206;2023-02-20T09:02:48;4.60;99.90
23395;DHT22;11870;53.084;18.206;2023-02-20T09:05:16;4.60;99.90
23395;DHT22;11870;53.084;18.206;2023-02-20T09:07:42;4.60;99.90
23395;DHT22;11870;53.084;18.206;2023-02-20T09:10:08;4.60;99.90
23395;DHT22;11870;53.084;18.206;2023-02-20T09:12:34;4.60;99.90
23395;DHT22;11870;53.084;18.206;2023-02-20T09:15:00;5.50;99.90
23395;DHT22;11870;53.084;18.206;2023-02-20T09:17:27;4.60;99.90
23395;DHT22;11870;53.084;18.206;2023-02-20T09:19:54;4.70;99.90
23395;DHT22;11870;53.084;18.206;2023-02-20T09:22:24;4.70;99.90
23395;DHT22;11870;53.084;18.206;2023-02-20T09:24:52;4.70;99.90
23395;DHT22;11870;53.084;18.206;2023-02-20T09:27:18;5.50;99.90
23395;DHT22;11870;53.084;18.206;2023-02-20T09:29:45;4.70;99.90
23395;DHT22;11870;53.084;18.206;2023-02-20T09:32:12;4.70;99.90
23395;DHT22;11870;53.084;18.206;2023-02-20T09:34:39;4.70;99.90
23395;DHT22;11870;53.084;18.206;2023-02-20T09:37:05;4.70;99.90
23395;DHT22;11870;53.084;18.206;2023-02-20T09:39:31;4.80;99.90
23395;DHT22;11870;53.084;18.206;2023-02-20T09:45:22;5.00;99.90
23395;DHT22;11870;53.084;18.206;2023-02-20T09:48:00;5.10;99.90
23395;DHT22;11870;53.084;18.206;2023-02-20T09:50:39;5.20;99.90
23395;DHT22;11870;53.084;18.206;2023-02-20T09:53:33;5.20;99.90
23395;DHT22;11870;53.084;18.206;2023-02-20T09:56:03;5.30;99.90
23395;DHT22;11870;53.084;18.206;2023-02-20T10:01:22;5.40;99.90
23395;DHT22;11870;53.084;18.206;2023-02-20T10:04:17;5.40;99.90
23395;DHT22;11870;53.084;18.206;2023-02-20T10:06:45;5.60;99.90
23395;DHT22;11870;53.084;18.206;2023-02-20T10:09:14;5.60;99.90
23395;DHT22;11870;53.084;18.206;2023-02-20T10:17:46;5.70;99.90
23395;DHT22;11870;53.084;18.206;2023-02-20T10:20:39;5.80;99.90
23395;DHT22;11870;53.084;18.206;2023-02-20T10:23:12;5.90;99.90
23395;DHT22;11870;53.084;18.206;2023-02-20T10:25:48;5.90;99.90
23395;DHT22;11870;53.084;18.206;2023-02-20T10:28:17;6.00;99.90
23395;DHT22;11870;53.084;18.206;2023-02-20T10:36:24;6.10;99.90
23395;DHT22;11870;53.084;18.206;2023-02-20T10:39:13;6.20;99.90
23395;DHT22;11870;53.084;18.206;2023-02-20T10:41:46;6.20;99.90
23395;DHT22;11870;53.084;18.206;2023-02-20T10:44:29;6.30;99.90
23395;DHT22;11870;53.084;18.206;2023-02-20T10:47:06;6.30;99.90
23395;DHT22;11870;53.084;18.206;2023-02-20T10:52:19;6.40;99.90
23395;DHT22;11870;53.084;18.206;2023-02-20T10:55:05;6.50;99.90
23395;DHT22;11870;53.084;18.206;2023-02-20T10:57:37;6.50;99.90
23395;DHT22;11870;53.084;18.206;2023-02-20T11:00:14;6.60;99.90
23395;DHT22;11870;53.084;18.206;2023-02-20T11:02:51;6.70;99.90
23395;DHT22;11870;53.084;18.206;2023-02-20T11:05:25;6.70;99.90
23395;DHT22;11870;53.084;18.206;2023-02-20T11:07:51;6.80;99.90
23395;DHT22;11870;53.084;18.206;2023-02-20T11:10:18;8.10;99.90
23395;DHT22;11870;53.084;18.206;2023-02-20T11:12:48;6.90;99.90
23395;DHT22;11870;53.084;18.206;2023-02-20T11:15:19;6.90;99.90
23395;DHT22;11870;53.084;18.206;2023-02-20T11:17:48;6.90;99.90
23395;DHT22;11870;53.084;18.206;2023-02-20T11:22:58;6.90;99.90
23395;DHT22;11870;53.084;18.206;2023-02-20T11:25:34;7.00;99.90
23395;DHT22;11870;53.084;18.206;2023-02-20T11:28:22;7.00;99.90
23395;DHT22;11870;53.084;18.206;2023-02-20T11:30:58;7.00;99.90
23395;DHT22;11870;53.084;18.206;2023-02-20T11:33:25;7.00;99.90
23395;DHT22;11870;53.084;18.206;2023-02-20T11:36:15;7.00;99.90
23395;DHT22;11870;53.084;18.206;2023-02-20T11:38:42;7.00;99.90
23395;DHT22;11870;53.084;18.206;2023-02-20T11:41:25;7.00;99.90
23395;DHT22;11870;53.084;18.206;2023-02-20T11:46:45;7.00;99.90
23395;DHT22;11870;53.084;18.206;2023-02-20T11:49:25;7.00;99.90
23395;DHT22;11870;53.084;18.206;2023-02-20T11:51:51;7.70;99.90
23395;DHT22;11870;53.084;18.206;2023-02-20T11:54:25;7.10;99.90
23395;DHT22;11870;53.084;18.206;2023-02-20T11:59:33;8.00;99.90
23395;DHT22;11870;53.084;18.206;2023-02-20T12:02:21;7.10;99.90
23395;DHT22;11870;53.084;18.206;2023-02-20T12:05:04;7.20;99.90
23395;DHT22;11870;53.084;18.206;2023-02-20T12:12:35;7.30;99.90
23395;DHT22;11870;53.084;18.206;2023-02-20T12:15:01;7.80;99.90
23395;DHT22;11870;53.084;18.206;2023-02-20T12:20:30;7.40;99.90
23395;DHT22;11870;53.084;18.206;2023-02-20T12:26:10;7.50;99.90
23395;DHT22;11870;53.084;18.206;2023-02-20T12:36:56;7.60;99.90
23395;DHT22;11870;53.084;18.206;2023-02-20T12:39:44;7.60;99.90
23395;DHT22;11870;53.084;18.206;2023-02-20T12:42:39;8.90;99.90
23395;DHT22;11870;53.084;18.206;2023-02-20T12:51:27;7.70;99.90
23395;DHT22;11870;53.084;18.206;2023-02-20T12:57:20;7.70;99.90
23395;DHT22;11870;53.084;18.206;2023-02-20T13:00:04;7.80;99.90
23395;DHT22;11870;53.084;18.206;2023-02-20T13:02:58;7.80;99.90
23395;DHT22;11870;53.084;18.206;2023-02-20T13:05:25;7.80;99.90
23395;DHT22;11870;53.084;18.206;2023-02-20T13:08:00;7.80;99.90
23395;DHT22;11870;53.084;18.206;2023-02-20T13:10:34;8.40;99.90
23395;DHT22;11870;53.084;18.206;2023-02-20T13:13:09;7.80;99.90
23395;DHT22;11870;53.084;18.206;2023-02-20T13:15:37;7.80;99.90
23395;DHT22;11870;53.084;18.206;2023-02-20T13:18:19;7.80;99.90
23395;DHT22;11870;53.084;18.206;2023-02-20T13:20:51;7.90;99.90
23395;DHT22;11870;53.084;18.206;2023-02-20T13:25:45;7.90;99.90
23395;DHT22;11870;53.084;18.206;2023-02-20T13:30:37;8.00;99.90
23395;DHT22;11870;53.084;18.206;2023-02-20T13:33:27;8.00;99.90
23395;DHT22;11870;53.084;18.206;2023-02-20T13:35:55;9.30;99.90
23395;DHT22;11870;53.084;18.206;2023-02-20T13:38:26;8.00;99.90
23395;DHT22;11870;53.084;18.206;2023-02-20T13:45:48;8.00;99.90
23395;DHT22;11870;53.084;18.206;2023-02-20T13:53:43;8.10;99.90
23395;DHT22;11870;53.084;18.206;2023-02-20T13:56:16;8.10;99.90
23395;DHT22;11870;53.084;18.206;2023-02-20T13:58:44;8.10;99.90
23395;DHT22;11870;53.084;18.206;2023-02-20T14:01:11;8.20;99.90
23395;DHT22;11870;53.084;18.206;2023-02-20T14:03:37;8.80;99.90
23395;DHT22;11870;53.084;18.206;2023-02-20T14:06:08;10.10;99.90
23395;DHT22;11870;53.084;18.206;2023-02-20T14:08:35;8.30;99.90
23395;DHT22;11870;53.084;18.206;2023-02-20T14:11:14;8.30;99.90
23395;DHT22;11870;53.084;18.206;2023-02-20T14:13:49;8.30;99.90
23395;DHT22;11870;53.084;18.206;2023-02-20T14:16:36;8.30;99.90
23395;DHT22;11870;53.084;18.206;2023-02-20T14:19:26;8.50;99.90
23395;DHT22;11870;53.084;18.206;2023-02-20T14:21:52;8.40;99.90
23395;DHT22;11870;53.084;18.206;2023-02-20T14:26:46;8.50;99.90
23395;DHT22;11870;53.084;18.206;2023-02-20T14:29:27;8.50;99.90
23395;DHT22;11870;53.084;18.206;2023-02-20T14:31:55;8.50;99.90
23395;DHT22;11870;53.084;18.206;2023-02-20T14:42:25;8.60;99.90
23395;DHT22;11870;53.084;18.206;2023-02-20T14:45:03;8.60;99.90
23395;DHT22;11870;53.084;18.206;2023-02-20T14:47:30;8.60;99.90
23395;DHT22;11870;53.084;18.206;2023-02-20T14:50:19;9.60;99.90
23395;DHT22;11870;53.084;18.206;2023-02-20T14:52:46;8.60;99.90
23395;DHT22;11870;53.084;18.206;2023-02-20T14:55:17;8.50;99.90
23395;DHT22;11870;53.084;18.206;2023-02-20T14:57:43;8.60;99.90
23395;DHT22;11870;53.084;18.206;2023-02-20T15:02:35;8.60;99.90
23395;DHT22;11870;53.084;18.206;2023-02-20T15:05:07;8.60;99.90
23395;DHT22;11870;53.084;18.206;2023-02-20T15:07:34;8.60;99.90
23395;DHT22;11870;53.084;18.206;2023-02-20T15:10:04;8.60;99.90
23395;DHT22;11870;53.084;18.206;2023-02-20T15:12:40;8.60;99.90
23395;DHT22;11870;53.084;18.206;2023-02-20T15:15:11;8.70;99.90
23395;DHT22;11870;53.084;18.206;2023-02-20T15:17:40;8.80;99.90
23395;DHT22;11870;53.084;18.206;2023-02-20T15:23:07;8.80;99.90
23395;DHT22;11870;53.084;18.206;2023-02-20T15:25:33;9.50;99.90
23395;DHT22;11870;53.084;18.206;2023-02-20T15:30:30;8.80;99.90
23395;DHT22;11870;53.084;18.206;2023-02-20T15:32:56;8.80;99.90
23395;DHT22;11870;53.084;18.206;2023-02-20T15:35:30;8.80;99.90
23395;DHT22;11870;53.084;18.206;2023-02-20T15:38:00;8.80;99.90
23395;DHT22;11870;53.084;18.206;2023-02-20T15:40:31;8.80;99.90
23395;DHT22;11870;53.084;18.206;2023-02-20T15:42:58;8.80;99.90
23395;DHT22;11870;53.084;18.206;2023-02-20T15:45:29;8.80;99.90
23395;DHT22;11870;53.084;18.206;2023-02-20T15:47:56;8.80;99.90
23395;DHT22;11870;53.084;18.206;2023-02-20T15:50:23;8.80;99.90
23395;DHT22;11870;53.084;18.206;2023-02-20T15:52:53;8.80;99.90
23395;DHT22;11870;53.084;18.206;2023-02-20T15:55:21;8.70;99.90
23395;DHT22;11870;53.084;18.206;2023-02-20T15:57:48;9.60;99.90
23395;DHT22;11870;53.084;18.206;2023-02-20T16:00:33;8.80;99.90
23395;DHT22;11870;53.084;18.206;2023-02-20T16:03:00;8.70;99.90
23395;DHT22;11870;53.084;18.206;2023-02-20T16:05:27;8.70;99.90
23395;DHT22;11870;53.084;18.206;2023-02-20T16:07:53;8.70;99.90
23395;DHT22;11870;53.084;18.206;2023-02-20T16:10:20;9.90;99.90
23395;DHT22;11870;53.084;18.206;2023-02-20T16:12:55;8.80;99.90
23395;DHT22;11870;53.084;18.206;2023-02-20T16:15:21;8.80;99.90
23395;DHT22;11870;53.084;18.206;2023-02-20T16:17:50;8.80;99.90
23395;DHT22;11870;53.084;18.206;2023-02-20T16:20:19;8.80;99.90
23395;DHT22;11870;53.084;18.206;2023-02-20T16:22:45;8.80;99.90
23395;DHT22;11870;53.084;18.206;2023-02-20T16:25:14;8.80;99.90
23395;DHT22;11870;53.084;18.206;2023-02-20T16:27:41;8.90;99.90
23395;DHT22;11870;53.084;18.206;2023-02-20T16:30:18;8.80;99.90
23395;DHT22;11870;53.084;18.206;2023-02-20T16:32:44;8.80;99.90
23395;DHT22;11870;53.084;18.206;2023-02-20T16:35:13;8.80;99.90
23395;DHT22;11870;53.084;18.206;2023-02-20T16:37:39;8.80;99.90
23395;DHT22;11870;53.084;18.206;2023-02-20T16:40:06;8.80;99.90
23395;DHT22;11870;53.084;18.206;2023-02-20T16:42:34;8.90;99.90
23395;DHT22;11870;53.084;18.206;2023-02-20T16:45:10;9.50;99.90
23395;DHT22;11870;53.084;18.206;2023-02-20T16:47:36;9.00;99.90
23395;DHT22;11870;53.084;18.206;2023-02-20T16:50:03;9.00;99.90
23395;DHT22;11870;53.084;18.206;2023-02-20T16:52:39;9.00;99.90
23395;DHT22;11870;53.084;18.206;2023-02-20T16:55:16;9.00;99.90
23395;DHT22;11870;53.084;18.206;2023-02-20T16:57:43;9.00;99.90
23395;DHT22;11870;53.084;18.206;2023-02-20T17:00:17;9.00;99.90
23395;DHT22;11870;53.084;18.206;2023-02-20T17:02:43;9.00;99.90
23395;DHT22;11870;53.084;18.206;2023-02-20T17:05:10;9.00;99.90
23395;DHT22;11870;53.084;18.206;2023-02-20T17:07:36;9.00;99.90
23395;DHT22;11870;53.084;18.206;2023-02-20T17:10:04;9.40;99.90
23395;DHT22;11870;53.084;18.206;2023-02-20T17:12:29;9.10;99.90
23395;DHT22;11870;53.084;18.206;2023-02-20T17:14:56;9.10;99.90
23395;DHT22;11870;53.084;18.206;2023-02-20T17:17:22;9.10;99.90
23395;DHT22;11870;53.084;18.206;2023-02-20T17:19:49;10.10;99.90
23395;DHT22;11870;53.084;18.206;2023-02-20T17:22:20;9.10;99.90
23395;DHT22;11870;53.084;18.206;2023-02-20T17:24:47;9.10;99.90
23395;DHT22;11870;53.084;18.206;2023-02-20T17:27:13;10.00;99.90
23395;DHT22;11870;53.084;18.206;2023-02-20T17:29:44;9.10;99.90
23395;DHT22;11870;53.084;18.206;2023-02-20T17:32:12;9.10;99.90
23395;DHT22;11870;53.084;18.206;2023-02-20T17:34:38;9.10;99.90
23395;DHT22;11870;53.084;18.206;2023-02-20T17:37:05;9.10;99.90
23395;DHT22;11870;53.084;18.206;2023-02-20T17:39:32;9.20;99.90
23395;DHT22;11870;53.084;18.206;2023-02-20T17:41:57;9.20;99.90
23395;DHT22;11870;53.084;18.206;2023-02-20T17:44:28;9.30;99.90
23395;DHT22;11870;53.084;18.206;2023-02-20T17:46:57;9.20;99.90
23395;DHT22;11870;53.084;18.206;2023-02-20T17:49:24;9.20;99.90
23395;DHT22;11870;53.084;18.206;2023-02-20T17:51:52;9.30;99.90
23395;DHT22;11870;53.084;18.206;2023-02-20T17:54:20;9.30;99.90